L45 weather

Bakersfield Municipal Airport
Bakersfield, California, United States

Public forecast

Using degrees Fahrenheit for public forecast. Weather courtesy of forecast.io.

METAR (pilot weather report)

Closest report is Meadows Field, 7.2 nm (13.3 km) NNW. Retrieved 2018/04/21 04:54 UTC (10 minutes ago):

KBFL 210454Z 00000KT 10SM CLR 18/04 A3013 RMK AO2 SLP199 T01780039

TAF (pilot weather forecast)

Forecast is more than 12 hours old.

Closest forecast is Meadows Field, 7.2 nm (13.3 km) NNW. Retrieved 2018/04/20 00:22 UTC (1 day ago):

TAF KBFL 202320Z 2100/2124 31008G15KT P6SM SKC FM210400 VRB04KT P6SM SKC FM211800 28006KT P6SM SKC